Back to Top

Language: 

My Weather Underground Personal Weather Station Historical Data with Graphs...

Delerius Weather Station Historical Data
Daily Summary for January 4, 2017 Units:  Metric    English   Both
« Previous Day
Next Day »
Daily Weekly Monthly Yearly Custom
  High: Low: Average:
Temperature: 7.6 °C 2.1 °C 5.6 °C
Dew Point: 6.3 °C -1.9 °C 1.7 °C
Humidity: 92 % 57 % 77 %
Wind Speed: 25.7 km/h 1.6 km/h 10.8 km/h
Wind Gust: 46.7 km/h - -
Wind:- - WNW
Pressure: 1031.4 hPa 1020.9 hPa -
Precipitation: 0 mm    
Historical Graphs
 
 
Tabular Data for January 4, 2017
Time Temperature Dew Point Pressure Wind Wind Speed Wind Gust Humidity Rainfall Rate (Hourly) solar Conditions
00:00 7.4 °C 5.6 °C 1021.6 hPa NW 24.1 km/h 24.1 km/h 88 % 0 mm 0 W/m2
00:05 7.4 °C 5.6 °C 1021.6 hPa West 25.7 km/h 25.7 km/h 88 % 0 mm 0 W/m2
00:15 7.4 °C 5.6 °C 1021.6 hPa WNW 22.5 km/h 24.1 km/h 88 % 0 mm 0 W/m2
00:20 7.4 °C 5.6 °C 1021.6 hPa WNW 22.5 km/h 22.5 km/h 88 % 0 mm 0 W/m2
00:25 7.4 °C 5.6 °C 1021.6 hPa WNW 20.9 km/h 22.5 km/h 88 % 0 mm 0 W/m2
00:35 7.4 °C 5.6 °C 1021.2 hPa NW 22.5 km/h 25.7 km/h 88 % 0 mm 0 W/m2
00:40 7.4 °C 5.6 °C 1021.2 hPa West 24.1 km/h 24.1 km/h 88 % 0 mm 0 W/m2
00:45 7.4 °C 5.6 °C 1021.2 hPa NW 25.7 km/h 25.7 km/h 88 % 0 mm 0 W/m2
00:50 7.3 °C 5.5 °C 1021.2 hPa NW 22.5 km/h 22.5 km/h 88 % 0 mm 0 W/m2
00:55 7.3 °C 5.6 °C 1021.2 hPa West 20.9 km/h 37 km/h 89 % 0 mm 0 W/m2
01:00 7.2 °C 5.6 °C 1021.2 hPa WNW 22.5 km/h 22.5 km/h 89 % 0 mm 0 W/m2
01:10 7.1 °C 5.4 °C 1021.2 hPa West 20.9 km/h 20.9 km/h 89 % 0 mm 0 W/m2
01:15 7.1 °C 5.4 °C 1021.2 hPa West 22.5 km/h 25.7 km/h 89 % 0 mm 0 W/m2
01:20 7.1 °C 5.4 °C 1021.2 hPa WNW 20.9 km/h 46.7 km/h 89 % 0 mm 0 W/m2
01:25 7 °C 5.4 °C 1021.2 hPa WNW 19.3 km/h 46.7 km/h 90 % 0 mm 0 W/m2
01:30 7.1 °C 5.5 °C 1021.2 hPa WNW 20.9 km/h 20.9 km/h 90 % 0 mm 0 W/m2
01:35 7.1 °C 5.6 °C 1021.6 hPa WNW 22.5 km/h 22.5 km/h 90 % 0 mm 0 W/m2
01:45 7.2 °C 5.6 °C 1021.6 hPa West 19.3 km/h 25.7 km/h 90 % 0 mm 0 W/m2
01:50 7.2 °C 5.7 °C 1021.6 hPa NW 19.3 km/h 19.3 km/h 90 % 0 mm 0 W/m2
01:55 7.2 °C 5.7 °C 1021.2 hPa West 19.3 km/h 20.9 km/h 90 % 0 mm 0 W/m2
02:00 7.3 °C 5.7 °C 1021.2 hPa WNW 17.7 km/h 17.7 km/h 90 % 0 mm 0 W/m2
02:05 7.3 °C 5.7 °C 1021.2 hPa NW 19.3 km/h 19.3 km/h 90 % 0 mm 0 W/m2
02:10 7.3 °C 5.8 °C 1021.2 hPa WNW 19.3 km/h 46.7 km/h 90 % 0 mm 0 W/m2
02:15 7.3 °C 5.8 °C 1021.6 hPa WNW 17.7 km/h 46.7 km/h 90 % 0 mm 0 W/m2
02:25 7.4 °C 5.8 °C 1021.6 hPa WNW 17.7 km/h 46.7 km/h 90 % 0 mm 0 W/m2
02:30 7.4 °C 5.8 °C 1021.6 hPa WNW 17.7 km/h 46.7 km/h 90 % 0 mm 0 W/m2
02:35 7.4 °C 5.9 °C 1021.6 hPa NW 16.1 km/h 46.7 km/h 90 % 0 mm 0 W/m2
02:40 7.5 °C 5.9 °C 1021.6 hPa WNW 16.1 km/h 16.1 km/h 90 % 0 mm 0 W/m2
02:45 7.5 °C 5.9 °C 1021.6 hPa NW 17.7 km/h 19.3 km/h 90 % 0 mm 0 W/m2
02:55 7.6 °C 6 °C 1021.6 hPa NW 19.3 km/h 46.7 km/h 90 % 0 mm 0 W/m2
03:00 7.6 °C 6 °C 1021.6 hPa NW 16.1 km/h 16.1 km/h 90 % 0 mm 0 W/m2
03:05 7.6 °C 6 °C 1021.6 hPa WNW 14.5 km/h 46.7 km/h 90 % 0 mm 0 W/m2
03:10 7.6 °C 6 °C 1021.2 hPa WNW 17.7 km/h 46.7 km/h 90 % 0 mm 0 W/m2
03:15 7.6 °C 6 °C 1021.2 hPa NW 17.7 km/h 46.7 km/h 90 % 0 mm 0 W/m2
03:25 7.6 °C 6.2 °C 1021.6 hPa WNW 12.9 km/h 46.7 km/h 91 % 0 mm 0 W/m2
03:30 7.6 °C 6.2 °C 1021.6 hPa West 14.5 km/h 14.5 km/h 91 % 0 mm 0 W/m2
03:35 7.6 °C 6.2 °C 1021.6 hPa WNW 14.5 km/h 46.7 km/h 91 % 0 mm 0 W/m2
03:40 7.6 °C 6.2 °C 1021.6 hPa West 12.9 km/h 46.7 km/h 91 % 0 mm 0 W/m2
03:45 7.5 °C 6.1 °C 1021.6 hPa WNW 14.5 km/h 46.7 km/h 91 % 0 mm 0 W/m2
03:50 7.5 °C 6.3 °C 1021.2 hPa WNW 12.9 km/h 46.7 km/h 92 % 0 mm 0 W/m2
04:00 7.4 °C 6.2 °C 1021.2 hPa West 14.5 km/h 46.7 km/h 92 % 0 mm 0 W/m2
04:05 7.4 °C 6.2 °C 1021.2 hPa WNW 12.9 km/h 46.7 km/h 92 % 0 mm 0 W/m2
04:10 7.4 °C 6.2 °C 1021.2 hPa West 12.9 km/h 46.7 km/h 92 % 0 mm 0 W/m2
04:15 7.4 °C 6.2 °C 1020.9 hPa West 14.5 km/h 46.7 km/h 92 % 0 mm 0 W/m2
04:25 7.3 °C 6.1 °C 1020.9 hPa West 14.5 km/h 46.7 km/h 92 % 0 mm 0 W/m2
04:30 7.2 °C 5.8 °C 1020.9 hPa WNW 14.5 km/h 14.5 km/h 91 % 0 mm 0 W/m2
04:35 7.2 °C 5.9 °C 1020.9 hPa WNW 12.9 km/h 17.7 km/h 92 % 0 mm 0 W/m2
04:40 7.1 °C 5.7 °C 1020.9 hPa WNW 14.5 km/h 14.5 km/h 91 % 0 mm 0 W/m2
04:50 7.1 °C 5.7 °C 1020.9 hPa West 12.9 km/h 12.9 km/h 91 % 0 mm 0 W/m2
04:55 7 °C 5.6 °C 1020.9 hPa WNW 11.3 km/h 46.7 km/h 91 % 0 mm 0 W/m2
05:00 6.9 °C 5.6 °C 1020.9 hPa WNW 12.9 km/h 46.7 km/h 91 % 0 mm 0 W/m2
05:05 6.9 °C 5.5 °C 1020.9 hPa WNW 12.9 km/h 46.7 km/h 91 % 0 mm 0 W/m2
05:10 6.9 °C 5.5 °C 1020.9 hPa NW 12.9 km/h 12.9 km/h 91 % 0 mm 0 W/m2
05:15 6.8 °C 5.4 °C 1020.9 hPa NW 12.9 km/h 14.5 km/h 91 % 0 mm 0 W/m2
05:25 6.9 °C 5.5 °C 1021.2 hPa WNW 14.5 km/h 46.7 km/h 91 % 0 mm 0 W/m2
05:35 7.1 °C 5.7 °C 1021.2 hPa NW 16.1 km/h 46.7 km/h 91 % 0 mm 0 W/m2
05:40 7.1 °C 5.7 °C 1021.2 hPa WNW 16.1 km/h 16.1 km/h 91 % 0 mm 0 W/m2
05:45 7.1 °C 5.5 °C 1021.2 hPa NW 14.5 km/h 46.7 km/h 90 % 0 mm 0 W/m2
05:50 7.1 °C 5.6 °C 1021.2 hPa NW 16.1 km/h 46.7 km/h 90 % 0 mm 0 W/m2
06:00 7.1 °C 5.5 °C 1021.2 hPa NW 14.5 km/h 14.5 km/h 90 % 0 mm 0 W/m2
06:05 7.1 °C 5.5 °C 1021.2 hPa WNW 14.5 km/h 46.7 km/h 90 % 0 mm 0 W/m2
06:10 7.1 °C 5.5 °C 1021.6 hPa NW 14.5 km/h 14.5 km/h 90 % 0 mm 0 W/m2
06:15 7.1 °C 5.5 °C 1021.6 hPa WNW 12.9 km/h 16.1 km/h 90 % 0 mm 0 W/m2
06:20 7 °C 5.4 °C 1021.6 hPa NW 12.9 km/h 46.7 km/h 90 % 0 mm 0 W/m2
06:25 7 °C 5.4 °C 1021.6 hPa NW 14.5 km/h 46.7 km/h 90 % 0 mm 0 W/m2
06:30 6.9 °C 5.4 °C 1021.6 hPa NW 16.1 km/h 16.1 km/h 90 % 0 mm 0 W/m2
06:40 6.9 °C 5.3 °C 1021.9 hPa NW 14.5 km/h 46.7 km/h 89 % 0 mm 0 W/m2
06:45 6.9 °C 5.3 °C 1021.9 hPa NW 12.9 km/h 46.7 km/h 89 % 0 mm 0 W/m2
06:50 6.9 °C 5.2 °C 1021.9 hPa NW 12.9 km/h 46.7 km/h 89 % 0 mm 0 W/m2
06:55 6.8 °C 5.2 °C 1022.2 hPa WNW 12.9 km/h 46.7 km/h 89 % 0 mm 0 W/m2
07:00 6.8 °C 4.9 °C 1021.9 hPa NW 11.3 km/h 11.3 km/h 88 % 0 mm 0 W/m2
07:05 6.7 °C 4.9 °C 1021.9 hPa NW 9.7 km/h 46.7 km/h 88 % 0 mm 0 W/m2
07:15 6.5 °C 4.7 °C 1022.2 hPa NW 9.7 km/h 46.7 km/h 88 % 0 mm 0 W/m2
07:25 6.4 °C 4.6 °C 1022.2 hPa West 9.7 km/h 46.7 km/h 88 % 0 mm 0 W/m2
07:30 6.4 °C 4.7 °C 1022.2 hPa WNW 9.7 km/h 46.7 km/h 89 % 0 mm 0 W/m2
07:35 6.5 °C 4.8 °C 1022.2 hPa NW 9.7 km/h 46.7 km/h 89 % 0 mm 0 W/m2
07:40 6.6 °C 4.7 °C 1022.2 hPa NW 9.7 km/h 9.7 km/h 88 % 0 mm 0 W/m2
07:50 6.6 °C 4.7 °C 1022.6 hPa NW 4.8 km/h 46.7 km/h 88 % 0 mm 0 W/m2
07:55 6.6 °C 4.8 °C 1022.9 hPa North 6.4 km/h 46.7 km/h 88 % 0 mm 0 W/m2
08:00 6.6 °C 4.6 °C 1022.9 hPa NNW 6.4 km/h 46.7 km/h 87 % 0 mm 0 W/m2
08:05 6.7 °C 4.7 °C 1022.9 hPa NNW 4.8 km/h 46.7 km/h 87 % 0 mm 0 W/m2
08:10 6.7 °C 4.7 °C 1023.2 hPa NNW 3.2 km/h 3.2 km/h 87 % 0 mm 0 W/m2
08:15 6.6 °C 4.6 °C 1023.2 hPa NNE 3.2 km/h 46.7 km/h 87 % 0 mm 0 W/m2
08:25 6.5 °C 4 °C 1023.6 hPa NNW 8 km/h 46.7 km/h 84 % 0 mm 0 W/m2
08:30 6.4 °C 3.7 °C 1023.6 hPa NNE 11.3 km/h 46.7 km/h 83 % 0 mm 0 W/m2
08:35 6.3 °C 3.6 °C 1023.6 hPa NNE 14.5 km/h 46.7 km/h 83 % 0 mm 0 W/m2
08:40 6.2 °C 3.4 °C 1023.6 hPa North 12.9 km/h 12.9 km/h 82 % 0 mm 7 W/m2
08:50 6.1 °C 3.4 °C 1023.9 hPa North 8 km/h 8 km/h 83 % 0 mm 11 W/m2
09:00 6 °C 3.2 °C 1023.9 hPa NNE 11.3 km/h 11.3 km/h 82 % 0 mm 23 W/m2
09:05 5.9 °C 3.1 °C 1024.3 hPa NNE 9.7 km/h 46.7 km/h 82 % 0 mm 14 W/m2
09:10 5.9 °C 3.1 °C 1024.3 hPa NNE 9.7 km/h 46.7 km/h 82 % 0 mm 18 W/m2
09:15 5.9 °C 3.1 °C 1024.3 hPa NNE 8 km/h 46.7 km/h 82 % 0 mm 25 W/m2
09:20 5.8 °C 2.8 °C 1024.3 hPa NNE 6.4 km/h 46.7 km/h 81 % 0 mm 42 W/m2
09:25 5.8 °C 2.8 °C 1024.3 hPa NNE 6.4 km/h 46.7 km/h 81 % 0 mm 25 W/m2
09:35 5.8 °C 2.8 °C 1024.3 hPa North 6.4 km/h 46.7 km/h 81 % 0 mm 28 W/m2
09:45 5.7 °C 2.6 °C 1024.6 hPa NNW 3.2 km/h 6.4 km/h 80 % 0 mm 28 W/m2
09:50 5.7 °C 2.6 °C 1024.6 hPa NNW 3.2 km/h 46.7 km/h 80 % 0 mm 30 W/m2
09:55 5.7 °C 2.6 °C 1024.6 hPa ENE 3.2 km/h 46.7 km/h 80 % 0 mm 30 W/m2
10:00 5.7 °C 2.5 °C 1024.6 hPa NE 3.2 km/h 46.7 km/h 80 % 0 mm 46 W/m2
10:05 5.7 °C 2.6 °C 1024.9 hPa NNE 4.8 km/h 46.7 km/h 80 % 0 mm 51 W/m2
10:10 5.7 °C 2.6 °C 1024.9 hPa NNE 6.4 km/h 46.7 km/h 80 % 0 mm 60 W/m2
10:20 5.7 °C 2.6 °C 1024.9 hPa North 8 km/h 46.7 km/h 80 % 0 mm 58 W/m2
10:25 5.7 °C 2.6 °C 1024.9 hPa NNE 8 km/h 46.7 km/h 80 % 0 mm 63 W/m2
10:30 5.8 °C 2.6 °C 1024.9 hPa NNE 8 km/h 46.7 km/h 80 % 0 mm 54 W/m2
10:35 5.8 °C 2.6 °C 1024.9 hPa North 8 km/h 46.7 km/h 80 % 0 mm 44 W/m2
10:40 5.8 °C 2.4 °C 1025.3 hPa NNW 6.4 km/h 46.7 km/h 79 % 0 mm 40 W/m2
10:45 5.8 °C 2.2 °C 1025.3 hPa NNE 8 km/h 46.7 km/h 78 % 0 mm 62 W/m2
10:50 5.7 °C 1.6 °C 1025.3 hPa North 9.7 km/h 9.7 km/h 75 % 0 mm 40 W/m2
11:00 5.5 °C 1.1 °C 1025.3 hPa North 9.7 km/h 46.7 km/h 73 % 0 mm 193 W/m2
11:05 5.5 °C 0.8 °C 1025.6 hPa NNE 11.3 km/h 46.7 km/h 72 % 0 mm 206 W/m2
11:10 5.7 °C 1.2 °C 1025.6 hPa North 12.9 km/h 12.9 km/h 73 % 0 mm 213 W/m2
11:15 5.8 °C 1.2 °C 1025.6 hPa NNE 11.3 km/h 46.7 km/h 72 % 0 mm 236 W/m2
11:20 5.9 °C 1.3 °C 1025.6 hPa NNE 9.7 km/h 46.7 km/h 72 % 0 mm 311 W/m2
11:25 6.1 °C 1.4 °C 1025.6 hPa NNE 9.7 km/h 46.7 km/h 72 % 0 mm 225 W/m2
11:35 6.2 °C 1.7 °C 1025.6 hPa NNW 9.7 km/h 46.7 km/h 73 % 0 mm 54 W/m2
11:40 6.1 °C 1.1 °C 1025.6 hPa North 11.3 km/h 46.7 km/h 70 % 0 mm 49 W/m2
11:45 5.9 °C 0.4 °C 1026 hPa NNW 14.5 km/h 46.7 km/h 68 % 0 mm 51 W/m2
11:50 5.8 °C 0.3 °C 1026 hPa NNW 12.9 km/h 12.9 km/h 68 % 0 mm 144 W/m2
11:55 5.8 °C -0.1 °C 1026 hPa NNW 12.9 km/h 16.1 km/h 66 % 0 mm 236 W/m2
12:00 5.9 °C -0.6 °C 1026 hPa North 12.9 km/h 12.9 km/h 63 % 0 mm 239 W/m2
12:05 6 °C -0.7 °C 1026 hPa NNW 14.5 km/h 19.3 km/h 62 % 0 mm 223 W/m2
12:10 6.1 °C -0.6 °C 1026.3 hPa North 12.9 km/h 12.9 km/h 62 % 0 mm 237 W/m2
12:20 6.1 °C -0.6 °C 1026.3 hPa North 12.9 km/h 12.9 km/h 62 % 0 mm 239 W/m2
12:30 6.3 °C -0.7 °C 1026 hPa NNW 11.3 km/h 46.7 km/h 61 % 0 mm 239 W/m2
12:35 6.3 °C -0.9 °C 1026 hPa NNW 14.5 km/h 46.7 km/h 60 % 0 mm 237 W/m2
12:40 6.4 °C -0.8 °C 1026 hPa NW 12.9 km/h 46.7 km/h 60 % 0 mm 243 W/m2
12:50 6.4 °C -1 °C 1026 hPa NNW 14.5 km/h 14.5 km/h 59 % 0 mm 236 W/m2
12:55 6.5 °C -0.9 °C 1026 hPa NW 14.5 km/h 46.7 km/h 59 % 0 mm 230 W/m2
13:00 6.5 °C -0.7 °C 1026 hPa NNW 11.3 km/h 46.7 km/h 60 % 0 mm 230 W/m2
13:05 6.6 °C -0.7 °C 1026 hPa NNW 11.3 km/h 46.7 km/h 60 % 0 mm 225 W/m2
13:10 6.6 °C -0.9 °C 1026 hPa NNW 12.9 km/h 12.9 km/h 59 % 0 mm 218 W/m2
13:15 6.6 °C -0.9 °C 1026 hPa NNW 12.9 km/h 46.7 km/h 59 % 0 mm 220 W/m2
13:25 6.6 °C -1.1 °C 1026.3 hPa North 14.5 km/h 46.7 km/h 58 % 0 mm 202 W/m2
13:30 6.5 °C -1.2 °C 1026.3 hPa North 14.5 km/h 14.5 km/h 58 % 0 mm 202 W/m2
13:35 6.4 °C -1 °C 1026.3 hPa NW 14.5 km/h 46.7 km/h 59 % 0 mm 197 W/m2
13:40 6.4 °C -1 °C 1026.3 hPa NW 12.9 km/h 12.9 km/h 59 % 0 mm 188 W/m2
13:45 6.6 °C -0.7 °C 1026.3 hPa NW 11.3 km/h 46.7 km/h 60 % 0 mm 183 W/m2
13:50 6.6 °C -0.8 °C 1026.3 hPa NW 8 km/h 46.7 km/h 59 % 0 mm 179 W/m2
14:00 6.7 °C -1 °C 1026.3 hPa North 8 km/h 46.7 km/h 58 % 0 mm 165 W/m2
14:05 6.6 °C -1.1 °C 1026.3 hPa NW 8 km/h 46.7 km/h 58 % 0 mm 158 W/m2
14:10 6.6 °C -1.3 °C 1026.3 hPa NNW 8 km/h 8 km/h 57 % 0 mm 153 W/m2
14:15 6.6 °C -1.1 °C 1026.3 hPa NNW 8 km/h 46.7 km/h 58 % 0 mm 141 W/m2
14:20 6.6 °C -0.9 °C 1026.6 hPa NW 6.4 km/h 46.7 km/h 59 % 0 mm 144 W/m2
14:25 6.6 °C -1.1 °C 1026.6 hPa NNW 6.4 km/h 46.7 km/h 58 % 0 mm 151 W/m2
14:35 6.4 °C -1.2 °C 1026.6 hPa NNW 9.7 km/h 46.7 km/h 58 % 0 mm 116 W/m2
14:40 6.4 °C -1.3 °C 1026.6 hPa NNW 9.7 km/h 46.7 km/h 58 % 0 mm 121 W/m2
14:45 6.3 °C -1.4 °C 1026.6 hPa North 11.3 km/h 46.7 km/h 58 % 0 mm 113 W/m2
14:50 6.2 °C -1.3 °C 1026.6 hPa NNW 11.3 km/h 11.3 km/h 59 % 0 mm 104 W/m2
14:55 6.1 °C -1.1 °C 1026.6 hPa NNW 9.7 km/h 46.7 km/h 60 % 0 mm 100 W/m2
15:05 5.9 °C -1 °C 1026.6 hPa NNW 9.7 km/h 46.7 km/h 61 % 0 mm 67 W/m2
15:10 5.8 °C -1.1 °C 1026.6 hPa NNW 9.7 km/h 46.7 km/h 61 % 0 mm 33 W/m2
15:15 5.7 °C -1.2 °C 1026.6 hPa North 11.3 km/h 46.7 km/h 61 % 0 mm 23 W/m2
15:20 5.6 °C -1.3 °C 1027 hPa North 12.9 km/h 46.7 km/h 61 % 0 mm 23 W/m2
15:25 5.4 °C -1.3 °C 1027 hPa NNW 12.9 km/h 46.7 km/h 62 % 0 mm 19 W/m2
15:30 5.3 °C -1.4 °C 1027 hPa North 12.9 km/h 46.7 km/h 62 % 0 mm 21 W/m2
15:35 5.2 °C -1.3 °C 1027 hPa NW 11.3 km/h 46.7 km/h 63 % 0 mm 18 W/m2
15:45 4.9 °C -1.3 °C 1027.3 hPa NNW 9.7 km/h 46.7 km/h 64 % 0 mm 11 W/m2
15:50 4.9 °C -1.3 °C 1027.3 hPa NNE 11.3 km/h 11.3 km/h 64 % 0 mm 7 W/m2
15:55 4.9 °C -1.2 °C 1027.3 hPa NNW 9.7 km/h 46.7 km/h 65 % 0 mm 5 W/m2
16:00 4.8 °C -1.2 °C 1027.3 hPa NNW 9.7 km/h 46.7 km/h 65 % 0 mm 0 W/m2
16:05 4.8 °C -1.2 °C 1027.3 hPa NNW 9.7 km/h 46.7 km/h 65 % 0 mm 0 W/m2
16:10 4.8 °C -1.3 °C 1027.3 hPa NW 9.7 km/h 46.7 km/h 65 % 0 mm 0 W/m2
16:20 4.6 °C -1.4 °C 1027.7 hPa NNW 9.7 km/h 46.7 km/h 65 % 0 mm 0 W/m2
16:25 4.6 °C -1.3 °C 1027.7 hPa NNW 8 km/h 46.7 km/h 66 % 0 mm 0 W/m2
16:30 4.4 °C -1.3 °C 1027.7 hPa NW 8 km/h 46.7 km/h 66 % 0 mm 0 W/m2
16:35 4.4 °C -1.4 °C 1027.7 hPa NW 8 km/h 46.7 km/h 66 % 0 mm 0 W/m2
16:40 4.3 °C -1.5 °C 1028 hPa North 9.7 km/h 46.7 km/h 66 % 0 mm 0 W/m2
16:45 4.2 °C -1.6 °C 1027.7 hPa NNW 9.7 km/h 46.7 km/h 66 % 0 mm 0 W/m2
16:50 4.2 °C -1.6 °C 1027.7 hPa North 9.7 km/h 46.7 km/h 66 % 0 mm 0 W/m2
17:00 4.2 °C -1.6 °C 1027.7 hPa North 9.7 km/h 9.7 km/h 66 % 0 mm 0 W/m2
17:05 4.2 °C -1.6 °C 1027.7 hPa NNW 9.7 km/h 17.7 km/h 66 % 0 mm 0 W/m2
17:10 4.2 °C -1.6 °C 1028 hPa NNW 9.7 km/h 46.7 km/h 66 % 0 mm 0 W/m2
17:15 4.2 °C -1.6 °C 1028 hPa NW 11.3 km/h 46.7 km/h 66 % 0 mm 0 W/m2
17:20 4.2 °C -1.6 °C 1028 hPa NNW 9.7 km/h 9.7 km/h 66 % 0 mm 0 W/m2
17:25 4.2 °C -1.6 °C 1028 hPa NW 9.7 km/h 46.7 km/h 66 % 0 mm 0 W/m2
17:30 4.1 °C -1.7 °C 1028 hPa NNW 9.7 km/h 46.7 km/h 66 % 0 mm 0 W/m2
17:35 4.1 °C -1.7 °C 1028.3 hPa NW 11.3 km/h 46.7 km/h 66 % 0 mm 0 W/m2
17:40 4.1 °C -1.7 °C 1028.3 hPa NW 8 km/h 46.7 km/h 66 % 0 mm 0 W/m2
17:50 3.9 °C -1.8 °C 1028.3 hPa NNW 6.4 km/h 46.7 km/h 66 % 0 mm 0 W/m2
17:55 3.9 °C -1.9 °C 1028.3 hPa NNW 9.7 km/h 46.7 km/h 66 % 0 mm 0 W/m2
18:00 3.9 °C -1.9 °C 1028.3 hPa NW 11.3 km/h 46.7 km/h 66 % 0 mm 0 W/m2
18:05 3.9 °C -1.9 °C 1028.7 hPa NW 11.3 km/h 46.7 km/h 66 % 0 mm 0 W/m2
18:10 3.8 °C -1.7 °C 1028.7 hPa NNW 9.7 km/h 46.7 km/h 67 % 0 mm 0 W/m2
18:15 3.8 °C -1.8 °C 1028.7 hPa NNW 6.4 km/h 46.7 km/h 67 % 0 mm 0 W/m2
18:25 3.7 °C -1.8 °C 1028.7 hPa NNW 6.4 km/h 46.7 km/h 67 % 0 mm 0 W/m2
18:30 3.7 °C -1.7 °C 1028.7 hPa NNW 4.8 km/h 4.8 km/h 68 % 0 mm 0 W/m2
18:35 3.6 °C -1.8 °C 1028.7 hPa NNW 1.6 km/h 46.7 km/h 68 % 0 mm 0 W/m2
18:40 3.5 °C -1.7 °C 1029 hPa NW 1.6 km/h 46.7 km/h 69 % 0 mm 0 W/m2
18:45 3.5 °C -1.4 °C 1029 hPa NW 3.2 km/h 46.7 km/h 70 % 0 mm 0 W/m2
18:50 3.4 °C -1.7 °C 1029 hPa NW 3.2 km/h 3.2 km/h 69 % 0 mm 0 W/m2
19:00 3.5 °C -1.4 °C 1029 hPa NNW 3.2 km/h 3.2 km/h 70 % 0 mm 0 W/m2
19:05 3.5 °C -1.4 °C 1029 hPa NNW 3.2 km/h 6.4 km/h 70 % 0 mm 0 W/m2
19:10 3.4 °C -1.6 °C 1029 hPa WNW 3.2 km/h 46.7 km/h 70 % 0 mm 0 W/m2
19:15 3.3 °C -1.5 °C 1029 hPa WNW 4.8 km/h 46.7 km/h 71 % 0 mm 0 W/m2
19:25 3.1 °C -1.5 °C 1029 hPa WNW 3.2 km/h 46.7 km/h 72 % 0 mm 0 W/m2
19:30 3 °C -1.4 °C 1029 hPa WNW 3.2 km/h 3.2 km/h 73 % 0 mm 0 W/m2
19:35 3 °C -1.4 °C 1029 hPa WNW 3.2 km/h 46.7 km/h 73 % 0 mm 0 W/m2
19:40 3 °C -1.4 °C 1029.3 hPa WNW 1.6 km/h 1.6 km/h 73 % 0 mm 0 W/m2
19:45 3 °C -1.2 °C 1029.3 hPa WNW 1.6 km/h 3.2 km/h 74 % 0 mm 0 W/m2
19:50 3.1 °C -1.1 °C 1029.3 hPa WNW 3.2 km/h 46.7 km/h 74 % 0 mm 0 W/m2
20:00 3.1 °C -1.1 °C 1029.3 hPa NNW 3.2 km/h 46.7 km/h 74 % 0 mm 0 W/m2
20:05 3.1 °C -1.3 °C 1029.3 hPa NNW 3.2 km/h 46.7 km/h 73 % 0 mm 0 W/m2
20:10 3.1 °C -1.3 °C 1029.3 hPa NNW 3.2 km/h 3.2 km/h 73 % 0 mm 0 W/m2
20:15 3.1 °C -1.1 °C 1029.3 hPa NNW 3.2 km/h 46.7 km/h 74 % 0 mm 0 W/m2
20:20 3 °C -1.2 °C 1029.3 hPa NNW 3.2 km/h 46.7 km/h 74 % 0 mm 0 W/m2
20:25 3 °C -1 °C 1029.7 hPa WNW 4.8 km/h 46.7 km/h 75 % 0 mm 0 W/m2
20:35 2.9 °C -1.1 °C 1029.7 hPa WNW 4.8 km/h 8 km/h 75 % 0 mm 0 W/m2
20:40 2.9 °C -1.1 °C 1029.7 hPa NW 6.4 km/h 46.7 km/h 75 % 0 mm 0 W/m2
20:45 3 °C -1 °C 1030 hPa NW 6.4 km/h 46.7 km/h 75 % 0 mm 0 W/m2
20:50 3 °C -1 °C 1029.7 hPa NW 6.4 km/h 46.7 km/h 75 % 0 mm 0 W/m2
20:55 3.1 °C -1.1 °C 1029.7 hPa WNW 6.4 km/h 46.7 km/h 74 % 0 mm 0 W/m2
21:00 3.1 °C -1.1 °C 1030 hPa NW 6.4 km/h 46.7 km/h 74 % 0 mm 0 W/m2
21:10 3.2 °C -1.2 °C 1030 hPa NW 8 km/h 8 km/h 73 % 0 mm 0 W/m2
21:20 3.3 °C -1.1 °C 1030 hPa NW 4.8 km/h 4.8 km/h 73 % 0 mm 0 W/m2
21:25 3.3 °C -1.1 °C 1030.4 hPa NW 4.8 km/h 8 km/h 73 % 0 mm 0 W/m2
21:30 3.3 °C -1.1 °C 1030.4 hPa NW 6.4 km/h 46.7 km/h 73 % 0 mm 0 W/m2
21:35 3.3 °C -1.1 °C 1030.4 hPa NW 8 km/h 46.7 km/h 73 % 0 mm 0 W/m2
21:45 3.3 °C -1.1 °C 1030.4 hPa WNW 4.8 km/h 14.5 km/h 73 % 0 mm 0 W/m2
21:50 3.3 °C -1.1 °C 1030.4 hPa NW 6.4 km/h 46.7 km/h 73 % 0 mm 0 W/m2
21:55 3.2 °C -1.2 °C 1030.4 hPa NW 6.4 km/h 46.7 km/h 73 % 0 mm 0 W/m2
22:00 3.1 °C -1.3 °C 1030.4 hPa NW 6.4 km/h 6.4 km/h 73 % 0 mm 0 W/m2
22:05 2.9 °C -1.4 °C 1030.4 hPa NW 6.4 km/h 46.7 km/h 73 % 0 mm 0 W/m2
22:10 2.8 °C -1.6 °C 1030.4 hPa NW 6.4 km/h 46.7 km/h 73 % 0 mm 0 W/m2
22:20 2.7 °C -1.5 °C 1030.7 hPa NW 6.4 km/h 46.7 km/h 74 % 0 mm 0 W/m2
22:25 2.6 °C -1.6 °C 1030.7 hPa NW 6.4 km/h 46.7 km/h 74 % 0 mm 0 W/m2
22:30 2.6 °C -1.4 °C 1030.7 hPa NW 6.4 km/h 6.4 km/h 75 % 0 mm 0 W/m2
22:35 2.6 °C -1.4 °C 1030.7 hPa NW 6.4 km/h 46.7 km/h 75 % 0 mm 0 W/m2
23:15 2.8 °C -1.4 °C 1030.7 hPa NW 6.4 km/h 46.7 km/h 74 % 0 mm 0 W/m2
23:20 2.7 °C -1.4 °C 1031 hPa NW 4.8 km/h 4.8 km/h 74 % 0 mm 0 W/m2
23:25 2.6 °C -1.6 °C 1031 hPa NW 4.8 km/h 46.7 km/h 74 % 0 mm 0 W/m2
23:30 2.5 °C -1.7 °C 1031 hPa NW 4.8 km/h 4.8 km/h 74 % 0 mm 0 W/m2
23:35 2.4 °C -1.6 °C 1031 hPa NW 6.4 km/h 6.4 km/h 75 % 0 mm 0 W/m2
23:45 2.2 °C -1.8 °C 1031.4 hPa NW 4.8 km/h 46.7 km/h 75 % 0 mm 0 W/m2
23:55 2.1 °C -1.7 °C 1031.4 hPa NW 8 km/h 46.7 km/h 76 % 0 mm 0 W/m2
Delerius-Weather
Compliments of Weather Underground - 2 mb

Data updates at regular intervals.